Time;durP1;ratioP1;P1;durP2;ratioP2;P2;SDS_P1;SDS_P2;PMS_P1;PMS_P2;Temp;Humidity;BMP_temperature;BMP_pressure;BME280_temperature;BME280_humidity;BME280_pressure;Samples;Min_cycle;Max_cycle;Signal;HPM_P1;HPM_P2
2023/08/09 00:00:46;;;;;;;0.82;0.82;;;11.80;99.90;;;;;;4932254;29;20043;-68
2023/08/09 00:03:12;;;;;;;0.50;0.50;;;11.50;99.90;;;;;;4947267;28;20086;-68
2023/08/09 00:05:38;;;;;;;0.30;0.30;;;;;;;;;;4951697;28;20175;-67
2023/08/09 00:08:04;;;;;;;0.30;0.30;;;;;;;;;;4956632;28;20062;-68
2023/08/09 00:10:30;;;;;;;0.50;0.50;;;11.10;99.90;;;;;;4948414;28;20043;-68
2023/08/09 00:12:55;;;;;;;0.40;0.40;;;11.50;99.90;;;;;;4948297;28;20099;-68
2023/08/09 00:15:21;;;;;;;0.40;0.40;;;12.00;99.90;;;;;;4954255;28;20527;-68
2023/08/09 00:17:47;;;;;;;0.30;0.30;;;11.60;99.90;;;;;;4950151;28;20506;-68
2023/08/09 00:20:13;;;;;;;0.30;0.30;;;11.60;99.90;;;;;;4961899;28;20051;-68
2023/08/09 00:22:39;;;;;;;0.60;0.60;;;11.60;99.90;;;;;;4954883;28;20095;-68
2023/08/09 00:25:07;;;;;;;0.40;0.40;;;11.70;99.90;;;;;;4946715;28;20038;-68
2023/08/09 00:27:32;;;;;;;0.40;0.40;;;11.60;99.90;;;;;;4950102;28;20126;-68
2023/08/09 00:29:59;;;;;;;0.73;0.65;;;;;;;;;;4947928;28;20177;-69
2023/08/09 00:32:24;;;;;;;0.40;0.40;;;11.60;99.90;;;;;;4979284;28;20051;-68
2023/08/09 00:34:51;;;;;;;0.50;0.50;;;11.40;99.90;;;;;;4947877;28;20174;-68
2023/08/09 00:37:16;;;;;;;0.40;0.40;;;11.60;99.90;;;;;;4948606;28;20396;-68
2023/08/09 00:39:42;;;;;;;0.30;0.30;;;;;;;;;;4949118;28;20175;-68
2023/08/09 00:42:08;;;;;;;0.60;0.60;;;11.50;99.90;;;;;;4950173;28;20042;-68
2023/08/09 00:44:36;;;;;;;0.32;0.32;;;;;;;;;;4952432;28;20571;-68
2023/08/09 00:47:02;;;;;;;0.50;0.50;;;10.90;99.90;;;;;;4952453;28;20150;-68
2023/08/09 00:49:28;;;;;;;0.47;0.47;;;11.70;99.90;;;;;;4961996;28;20122;-68
2023/08/09 00:51:53;;;;;;;0.75;0.68;;;11.50;99.90;;;;;;4956796;28;20461;-68
2023/08/09 00:54:20;;;;;;;0.50;0.50;;;11.50;99.90;;;;;;4952595;28;20035;-68
2023/08/09 00:56:46;;;;;;;0.50;0.50;;;11.70;99.90;;;;;;4936479;29;20050;-68
2023/08/09 00:59:12;;;;;;;0.57;0.57;;;11.50;99.90;;;;;;4956608;28;20047;-68
2023/08/09 01:01:38;;;;;;;0.40;0.40;;;11.80;99.90;;;;;;4946653;28;20479;-68
2023/08/09 01:04:05;;;;;;;0.60;0.60;;;11.80;99.90;;;;;;4948640;28;20130;-68
2023/08/09 01:06:53;;;;;;;0.43;0.43;;;11.70;99.90;;;;;;4934637;29;20531;-68
2023/08/09 01:09:36;;;;;;;0.40;0.40;;;11.90;99.90;;;;;;4934418;28;20043;-69
2023/08/09 01:12:13;;;;;;;0.50;0.50;;;11.90;99.90;;;;;;4961688;28;20047;-69
2023/08/09 01:14:42;;;;;;;0.40;0.40;;;12.00;99.90;;;;;;4951729;28;20110;-69
2023/08/09 01:17:15;;;;;;;1.70;1.60;;;11.90;99.90;;;;;;4941705;29;20814;-68
2023/08/09 01:19:47;;;;;;;0.38;0.38;;;12.00;99.90;;;;;;4932054;29;20094;-68
2023/08/09 01:22:21;;;;;;;0.40;0.40;;;11.90;99.90;;;;;;4963794;28;20047;-68
2023/08/09 01:24:48;;;;;;;2.83;1.35;;;12.10;99.90;;;;;;4954484;28;20039;-68
2023/08/09 01:27:14;;;;;;;0.77;0.77;;;11.90;99.90;;;;;;4957065;28;20050;-68
2023/08/09 01:29:40;;;;;;;0.82;0.82;;;12.20;99.90;;;;;;4961675;28;20043;-68
2023/08/09 01:32:06;;;;;;;0.95;0.95;;;12.10;99.90;;;;;;4960145;28;20133;-68
2023/08/09 01:34:32;;;;;;;0.60;0.60;;;12.20;99.90;;;;;;4955121;28;20527;-68
2023/08/09 01:37:19;;;;;;;0.60;0.60;;;12.00;99.90;;;;;;4948084;28;20109;-69
2023/08/09 01:39:47;;;;;;;0.43;0.43;;;12.00;99.90;;;;;;4957467;28;20043;-69
2023/08/09 01:42:14;;;;;;;0.45;0.45;;;12.40;99.90;;;;;;4953118;28;20046;-69
2023/08/09 01:44:40;;;;;;;0.30;0.30;;;12.20;99.90;;;;;;4953762;28;20066;-69
2023/08/09 01:47:07;;;;;;;0.38;0.38;;;12.20;99.90;;;;;;4953998;28;20505;-66
2023/08/09 01:49:33;;;;;;;1.00;0.80;;;12.10;99.90;;;;;;4948312;28;20513;-68
2023/08/09 01:51:59;;;;;;;0.50;0.50;;;12.20;99.90;;;;;;4954396;28;20039;-69
2023/08/09 01:54:24;;;;;;;0.32;0.32;;;12.10;99.90;;;;;;4953161;28;20027;-68
2023/08/09 01:56:50;;;;;;;0.50;0.50;;;12.00;99.90;;;;;;4962747;28;20043;-68
2023/08/09 01:59:16;;;;;;;0.43;0.43;;;12.20;99.90;;;;;;4952323;28;20043;-68
2023/08/09 02:01:42;;;;;;;0.40;0.40;;;12.10;99.90;;;;;;4963691;28;20038;-68
2023/08/09 02:04:09;;;;;;;1.17;0.93;;;12.30;99.90;;;;;;4958571;28;20126;-68
2023/08/09 02:06:35;;;;;;;0.55;0.55;;;12.20;99.90;;;;;;4950183;28;20042;-68
2023/08/09 02:09:02;;;;;;;0.40;0.40;;;12.10;99.90;;;;;;4958514;28;20035;-68
2023/08/09 02:11:27;;;;;;;0.40;0.40;;;12.10;99.90;;;;;;4936708;29;20067;-69
2023/08/09 02:13:53;;;;;;;0.50;0.50;;;11.90;99.90;;;;;;4967918;28;20077;-69
2023/08/09 02:16:19;;;;;;;0.50;0.50;;;12.00;99.90;;;;;;4963385;28;20054;-69
2023/08/09 02:18:45;;;;;;;0.57;0.57;;;12.00;99.90;;;;;;4972695;28;20103;-69
2023/08/09 02:21:11;;;;;;;0.40;0.40;;;12.00;99.90;;;;;;4938867;28;20133;-69
2023/08/09 02:23:40;;;;;;;0.40;0.40;;;11.80;99.90;;;;;;4951588;28;20031;-69
2023/08/09 02:26:06;;;;;;;0.40;0.40;;;;;;;;;;4969597;28;20049;-69
2023/08/09 02:28:32;;;;;;;0.60;0.60;;;11.80;99.90;;;;;;4949800;28;20070;-69
2023/08/09 02:30:58;;;;;;;2.58;1.08;;;11.70;99.90;;;;;;4932554;28;20459;-69
2023/08/09 02:33:23;;;;;;;0.38;0.38;;;11.90;99.90;;;;;;4950895;28;20035;-69
2023/08/09 02:36:00;;;;;;;0.68;0.68;;;11.80;99.90;;;;;;4961504;28;20051;-68
2023/08/09 02:38:28;;;;;;;0.60;0.60;;;11.70;99.90;;;;;;4956584;28;20097;-69
2023/08/09 02:40:54;;;;;;;1.02;1.02;;;11.50;99.90;;;;;;4943980;28;20495;-69
2023/08/09 02:43:23;;;;;;;0.40;0.40;;;11.70;99.90;;;;;;4962078;28;20078;-69
2023/08/09 02:45:50;;;;;;;0.60;0.60;;;11.50;99.90;;;;;;4949217;28;20103;-69
2023/08/09 02:48:16;;;;;;;0.47;0.47;;;11.70;99.90;;;;;;4963279;28;20035;-69
2023/08/09 02:50:42;;;;;;;0.40;0.40;;;11.60;99.90;;;;;;4951518;28;20033;-67
2023/08/09 02:53:08;;;;;;;0.52;0.52;;;11.60;99.90;;;;;;4958581;28;20129;-67
2023/08/09 02:55:34;;;;;;;0.50;0.50;;;11.60;99.90;;;;;;4952878;28;20402;-69
2023/08/09 02:58:03;;;;;;;1.58;1.00;;;11.50;99.90;;;;;;4947048;28;20047;-69
2023/08/09 03:00:29;;;;;;;0.40;0.40;;;11.60;99.90;;;;;;4929461;28;20052;-69
2023/08/09 03:02:55;;;;;;;0.60;0.60;;;11.60;99.90;;;;;;4949886;28;20113;-69
2023/08/09 03:05:21;;;;;;;0.43;0.40;;;10.90;99.90;;;;;;4947982;28;20495;-69
2023/08/09 03:07:46;;;;;;;0.40;0.40;;;11.50;99.90;;;;;;4954538;28;20117;-69
2023/08/09 03:10:12;;;;;;;0.70;0.70;;;11.50;99.90;;;;;;4972194;28;20070;-69
2023/08/09 03:12:38;;;;;;;0.85;0.85;;;11.40;99.90;;;;;;4951718;28;20484;-67
2023/08/09 03:15:05;;;;;;;0.77;0.77;;;11.50;99.90;;;;;;4939268;28;20058;-68
2023/08/09 03:17:31;;;;;;;0.55;0.55;;;11.70;99.90;;;;;;4953121;28;20122;-69
2023/08/09 03:19:57;;;;;;;0.40;0.40;;;11.10;99.90;;;;;;4949994;28;20051;-69
2023/08/09 03:22:24;;;;;;;0.60;0.60;;;11.20;99.90;;;;;;4947296;28;20031;-69
2023/08/09 03:24:50;;;;;;;0.65;0.65;;;11.50;99.90;;;;;;4940431;28;20398;-69
2023/08/09 03:27:16;;;;;;;0.30;0.30;;;11.60;99.90;;;;;;4947960;28;20057;-69
2023/08/09 03:29:42;;;;;;;0.43;0.43;;;11.30;99.90;;;;;;4951374;28;20542;-69
2023/08/09 03:32:08;;;;;;;0.40;0.40;;;11.20;99.90;;;;;;4958790;28;20108;-69
2023/08/09 03:34:34;;;;;;;0.40;0.40;;;10.80;99.90;;;;;;4951872;28;20039;-68
2023/08/09 03:37:00;;;;;;;0.38;0.38;;;12.30;99.90;;;;;;4948807;28;20043;-69
2023/08/09 03:39:26;;;;;;;0.50;0.50;;;11.40;99.90;;;;;;4949295;28;20050;-69
2023/08/09 03:41:52;;;;;;;0.70;0.70;;;11.20;99.90;;;;;;4932305;29;20399;-69
2023/08/09 03:44:17;;;;;;;0.45;0.45;;;11.30;99.90;;;;;;4946623;28;20071;-67
2023/08/09 03:46:43;;;;;;;1.15;1.02;;;11.20;99.90;;;;;;4940091;28;20089;-69
2023/08/09 03:49:09;;;;;;;0.38;0.38;;;;;;;;;;4941255;28;20040;-66
2023/08/09 03:51:35;;;;;;;0.38;0.38;;;10.90;99.90;;;;;;4949347;28;20059;-69
2023/08/09 03:54:01;;;;;;;0.57;0.57;;;11.20;99.90;;;;;;4953418;28;20043;-69
2023/08/09 04:00:09;;;;;;;0.88;0.88;;;10.80;99.90;;;;;;4951278;28;20034;-69
2023/08/09 04:02:35;;;;;;;0.40;0.40;;;10.90;99.90;;;;;;4949795;28;20031;-69
2023/08/09 04:05:00;;;;;;;0.45;0.45;;;10.70;99.90;;;;;;4940308;28;20106;-69
2023/08/09 04:07:26;;;;;;;1.17;0.77;;;10.90;99.90;;;;;;4948303;28;20102;-69
2023/08/09 04:09:52;;;;;;;0.40;0.40;;;;;;;;;;4948007;28;20127;-69
2023/08/09 04:12:18;;;;;;;0.50;0.50;;;;;;;;;;4934968;28;20039;-69
2023/08/09 04:14:44;;;;;;;0.55;0.55;;;;;;;;;;4942678;28;20094;-69
2023/08/09 04:17:10;;;;;;;0.50;0.50;;;;;;;;;;4963161;28;20050;-67
2023/08/09 04:19:36;;;;;;;0.60;0.60;;;;;;;;;;4945022;28;20040;-68
2023/08/09 04:22:02;;;;;;;0.75;0.65;;;11.00;99.90;;;;;;4951315;28;20083;-69
2023/08/09 04:24:28;;;;;;;0.82;0.82;;;;;;;;;;4952312;28;20126;-69
2023/08/09 04:26:55;;;;;;;0.52;0.52;;;;;;;;;;4961232;28;20035;-69
2023/08/09 04:29:21;;;;;;;0.38;0.38;;;;;;;;;;4963308;28;20053;-68
2023/08/09 04:31:48;;;;;;;0.50;0.50;;;10.80;99.90;;;;;;4934409;29;20050;-69
2023/08/09 04:34:13;;;;;;;0.40;0.40;;;10.90;99.90;;;;;;4936767;29;20652;-69
2023/08/09 04:36:39;;;;;;;0.57;0.57;;;11.00;99.90;;;;;;4947464;29;20122;-69
2023/08/09 04:39:09;;;;;;;0.40;0.40;;;10.90;99.90;;;;;;4965375;28;20046;-68
2023/08/09 04:41:35;;;;;;;0.45;0.45;;;;;;;;;;4959791;28;20403;-69
2023/08/09 04:44:01;;;;;;;0.82;0.82;;;11.10;99.90;;;;;;4965404;28;20480;-69
2023/08/09 04:46:26;;;;;;;0.30;0.30;;;11.00;99.90;;;;;;4955876;28;20098;-68
2023/08/09 04:48:52;;;;;;;0.40;0.40;;;11.00;99.90;;;;;;4947822;28;20135;-71
2023/08/09 04:51:18;;;;;;;0.32;0.32;;;11.30;99.90;;;;;;4950142;28;20040;-68
2023/08/09 04:53:44;;;;;;;0.57;0.57;;;;;;;;;;4951185;28;20070;-68
2023/08/09 04:56:11;;;;;;;0.80;0.80;;;;;;;;;;4953023;28;20373;-68
2023/08/09 04:58:38;;;;;;;0.55;0.55;;;;;;;;;;4955964;28;20043;-68
2023/08/09 05:01:04;;;;;;;0.77;0.77;;;11.30;99.90;;;;;;4956305;28;20047;-68
2023/08/09 05:03:29;;;;;;;0.40;0.40;;;11.30;99.90;;;;;;4968953;28;20098;-68
2023/08/09 05:05:55;;;;;;;0.50;0.50;;;11.60;99.90;;;;;;4949779;28;21247;-68
2023/08/09 05:08:20;;;;;;;0.50;0.50;;;11.90;99.90;;;;;;4958214;28;20051;-68
2023/08/09 05:10:46;;;;;;;0.60;0.60;;;11.80;99.90;;;;;;4964193;28;20035;-72
2023/08/09 05:13:12;;;;;;;0.45;0.45;;;;;;;;;;4951024;28;20177;-70
2023/08/09 05:15:38;;;;;;;0.82;0.82;;;11.80;99.90;;;;;;4958461;28;20126;-69
2023/08/09 05:18:04;;;;;;;0.57;0.57;;;12.00;99.90;;;;;;4950806;29;20716;-68
2023/08/09 05:20:30;;;;;;;0.60;0.60;;;;;;;;;;4934064;28;20515;-69
2023/08/09 05:22:56;;;;;;;0.40;0.40;;;;;;;;;;4962975;28;20039;-69
2023/08/09 05:25:22;;;;;;;0.47;0.47;;;12.10;99.90;;;;;;4949046;28;20415;-71
2023/08/09 05:27:48;;;;;;;0.60;0.60;;;;;;;;;;4931186;29;20043;-70
2023/08/09 05:30:15;;;;;;;0.60;0.60;;;;;;;;;;4930787;28;20062;-71
2023/08/09 05:32:41;;;;;;;0.65;0.65;;;12.20;99.90;;;;;;4972348;28;20064;-71
2023/08/09 05:35:07;;;;;;;0.65;0.65;;;12.30;99.90;;;;;;4940274;28;20479;-71
2023/08/09 05:37:33;;;;;;;0.50;0.50;;;;;;;;;;4946826;28;20567;-72
2023/08/09 05:39:59;;;;;;;0.40;0.40;;;;;;;;;;4944747;28;20044;-72
2023/08/09 05:42:25;;;;;;;0.43;0.43;;;;;;;;;;4951622;28;20051;-72
2023/08/09 05:44:51;;;;;;;0.50;0.50;;;12.70;99.90;;;;;;4931817;29;20171;-72
2023/08/09 05:47:17;;;;;;;0.40;0.40;;;;;;;;;;4945193;28;20126;-72
2023/08/09 05:49:43;;;;;;;0.70;0.70;;;;;;;;;;4949146;28;20043;-72
2023/08/09 05:52:10;;;;;;;0.40;0.40;;;;;;;;;;4944663;28;20122;-71
2023/08/09 05:54:35;;;;;;;1.00;0.60;;;12.50;99.90;;;;;;4951188;28;20130;-70
2023/08/09 05:57:01;;;;;;;0.93;0.88;;;12.60;99.90;;;;;;4944393;28;20122;-72
2023/08/09 05:59:27;;;;;;;0.43;0.43;;;;;;;;;;4945868;28;20410;-72
2023/08/09 06:01:53;;;;;;;0.52;0.52;;;12.60;99.90;;;;;;4953484;28;20058;-71
2023/08/09 06:04:19;;;;;;;0.63;0.63;;;12.70;99.90;;;;;;4933348;28;20447;-72
2023/08/09 06:06:45;;;;;;;1.65;1.25;;;12.60;99.90;;;;;;4937978;28;20040;-72
2023/08/09 06:09:12;;;;;;;0.40;0.40;;;;;;;;;;4947962;28;20050;-72
2023/08/09 06:11:38;;;;;;;2.17;0.70;;;12.80;99.90;;;;;;4948364;28;20047;-69
2023/08/09 06:14:05;;;;;;;0.70;0.70;;;;;;;;;;4975454;28;20065;-73
2023/08/09 06:16:31;;;;;;;0.47;0.47;;;;;;;;;;4937883;28;20059;-68
2023/08/09 06:18:57;;;;;;;0.80;0.80;;;12.90;99.90;;;;;;4928819;29;20043;-68
2023/08/09 06:21:22;;;;;;;0.38;0.38;;;13.00;99.90;;;;;;4954451;28;20042;-71
2023/08/09 06:23:48;;;;;;;0.50;0.50;;;13.00;99.90;;;;;;4939586;28;20121;-68
2023/08/09 06:26:14;;;;;;;0.40;0.40;;;;;;;;;;4937245;28;20051;-71
2023/08/09 06:28:49;;;;;;;0.40;0.40;;;;;;;;;;4940825;28;20138;-71
2023/08/09 06:31:16;;;;;;;0.40;0.40;;;;;;;;;;4947705;28;20110;-71
2023/08/09 06:33:42;;;;;;;0.50;0.50;;;13.20;99.90;;;;;;4944843;28;20106;-68
2023/08/09 06:36:09;;;;;;;0.30;0.30;;;;;;;;;;4949382;28;20065;-71
2023/08/09 06:38:35;;;;;;;0.50;0.50;;;13.20;99.90;;;;;;4932288;28;20043;-71
2023/08/09 06:41:01;;;;;;;0.63;0.60;;;;;;;;;;4959407;28;20033;-70
2023/08/09 06:43:28;;;;;;;0.40;0.40;;;13.40;99.90;;;;;;4948409;28;20126;-71
2023/08/09 06:45:54;;;;;;;0.50;0.50;;;;;;;;;;4947295;28;20061;-70
2023/08/09 06:48:20;;;;;;;0.70;0.70;;;;;;;;;;4947797;28;20045;-71
2023/08/09 06:50:47;;;;;;;1.55;1.27;;;13.90;99.90;;;;;;4948618;28;20073;-71
2023/08/09 06:53:13;;;;;;;0.40;0.40;;;;;;;;;;4952007;28;20387;-71
2023/08/09 06:55:40;;;;;;;0.85;0.70;;;;;;;;;;4947418;28;20073;-72
2023/08/09 06:58:05;;;;;;;0.40;0.40;;;14.40;99.90;;;;;;4949179;28;20122;-72
2023/08/09 07:00:31;;;;;;;0.50;0.50;;;14.30;99.90;;;;;;4949743;28;20582;-71
2023/08/09 07:02:57;;;;;;;0.30;0.30;;;14.70;99.90;;;;;;4952213;28;20507;-72
2023/08/09 07:05:24;;;;;;;0.50;0.50;;;;;;;;;;4947920;28;20130;-72
2023/08/09 07:07:54;;;;;;;0.40;0.40;;;15.30;99.90;;;;;;4962004;28;20106;-72
2023/08/09 07:10:21;;;;;;;0.47;0.47;;;;;;;;;;4948293;28;20720;-71
2023/08/09 07:12:48;;;;;;;0.70;0.70;;;;;;;;;;4953199;28;20078;-71
2023/08/09 07:15:13;;;;;;;0.30;0.30;;;15.80;99.90;;;;;;4931440;29;20126;-71
2023/08/09 07:17:39;;;;;;;0.82;0.82;;;16.00;99.90;;;;;;4942946;28;20174;-73
2023/08/09 07:20:11;;;;;;;0.32;0.32;;;16.30;99.90;;;;;;4948062;28;20039;-71
2023/08/09 07:22:38;;;;;;;0.47;0.47;;;16.60;99.90;;;;;;4942028;28;20070;-72
2023/08/09 07:25:05;;;;;;;1.15;1.02;;;;;;;;;;4955764;28;20051;-72
2023/08/09 07:27:32;;;;;;;0.50;0.50;;;;;;;;;;4954023;28;20058;-72
2023/08/09 07:29:58;;;;;;;9.45;0.95;;;17.60;99.90;;;;;;4949147;28;20043;-72
2023/08/09 07:32:24;;;;;;;0.40;0.40;;;17.40;99.90;;;;;;4931669;28;20045;-74
2023/08/09 07:34:49;;;;;;;0.75;0.75;;;18.00;99.90;;;;;;4952655;28;20031;-72
2023/08/09 07:37:15;;;;;;;0.40;0.40;;;17.80;99.90;;;;;;4947645;28;20574;-74
2023/08/09 07:39:41;;;;;;;0.50;0.50;;;18.20;99.90;;;;;;4940968;28;20050;-71
2023/08/09 07:42:07;;;;;;;0.45;0.32;;;18.30;99.90;;;;;;4928647;29;20138;-72
2023/08/09 07:44:33;;;;;;;0.30;0.30;;;18.50;99.90;;;;;;4950645;28;20566;-71
2023/08/09 07:46:58;;;;;;;0.60;0.60;;;18.70;99.90;;;;;;4941709;28;20500;-71
2023/08/09 07:49:25;;;;;;;0.40;0.40;;;18.80;99.90;;;;;;4946036;28;20042;-71
2023/08/09 07:51:51;;;;;;;0.40;0.40;;;19.00;99.90;;;;;;4959381;28;20047;-74
2023/08/09 07:54:17;;;;;;;0.60;0.60;;;19.00;99.90;;;;;;4952429;28;20090;-71
2023/08/09 07:56:43;;;;;;;0.60;0.60;;;19.50;99.90;;;;;;4952050;28;20562;-74
2023/08/09 07:59:09;;;;;;;0.40;0.40;;;19.70;99.90;;;;;;4954290;28;20118;-72
2023/08/09 08:01:35;;;;;;;0.50;0.50;;;19.40;99.90;;;;;;4952605;28;20447;-72
2023/08/09 08:04:01;;;;;;;0.50;0.50;;;;;;;;;;4944019;28;20067;-72
2023/08/09 08:06:27;;;;;;;0.60;0.60;;;19.90;99.90;;;;;;4933480;28;20035;-73
2023/08/09 08:08:54;;;;;;;0.40;0.40;;;20.00;99.90;;;;;;4947833;28;20051;-73
2023/08/09 08:11:20;;;;;;;0.40;0.40;;;;;;;;;;4948898;29;20447;-72
2023/08/09 08:13:46;;;;;;;0.30;0.30;;;20.70;99.90;;;;;;4951738;28;20101;-73
2023/08/09 08:16:12;;;;;;;1.17;0.60;;;;;;;;;;4948720;28;20050;-73
2023/08/09 08:18:38;;;;;;;0.30;0.30;;;20.90;99.90;;;;;;4948311;29;20047;-72
2023/08/09 08:21:04;;;;;;;0.32;0.32;;;;;;;;;;4950199;28;20140;-72
2023/08/09 08:23:32;;;;;;;0.60;0.60;;;21.70;99.90;;;;;;4954836;28;20381;-72
2023/08/09 08:25:58;;;;;;;0.40;0.40;;;21.70;99.90;;;;;;4951317;28;20127;-73
2023/08/09 08:28:23;;;;;;;0.45;0.45;;;21.70;99.90;;;;;;4951882;28;20725;-72
2023/08/09 08:30:50;;;;;;;0.38;0.38;;;;;;;;;;4956923;28;20039;-71
2023/08/09 08:33:16;;;;;;;0.30;0.30;;;;;;;;;;4938128;29;20071;-71
2023/08/09 08:35:48;;;;;;;0.43;0.43;;;;;;;;;;4951215;28;20047;-72
2023/08/09 08:38:14;;;;;;;0.30;0.30;;;;;;;;;;4951680;28;20080;-71
2023/08/09 08:40:40;;;;;;;0.60;0.60;;;;;;;;;;4926966;29;20035;-71
2023/08/09 08:43:08;;;;;;;0.30;0.30;;;22.20;99.90;;;;;;4954004;28;20118;-71
2023/08/09 08:45:34;;;;;;;;;;;;;;;;;;4952036;28;20142;-72
2023/08/09 08:48:00;;;;;;;0.30;0.30;;;22.60;99.90;;;;;;4961391;28;19926;-71
2023/08/09 08:50:30;;;;;;;0.30;0.30;;;;;;;;;;4960945;28;20047;-72
2023/08/09 08:52:56;;;;;;;0.40;0.40;;;;;;;;;;4968148;28;20043;-72
2023/08/09 08:55:23;;;;;;;0.40;0.40;;;;;;;;;;4956750;28;20039;-72
2023/08/09 08:57:49;;;;;;;6.22;0.77;;;21.90;99.90;;;;;;4949249;28;20111;-72
2023/08/09 09:00:16;;;;;;;0.85;0.82;;;23.00;99.90;;;;;;4963878;28;20046;-72
2023/08/09 09:02:46;;;;;;;0.30;0.30;;;;;;;;;;4940760;28;20496;-72
2023/08/09 09:05:18;;;;;;;0.30;0.30;;;;;;;;;;4955158;28;20102;-72
2023/08/09 09:07:45;;;;;;;0.52;0.52;;;;;;;;;;4950175;28;20047;-72
2023/08/09 09:10:15;;;;;;;0.68;0.68;;;;;;;;;;4948238;28;20432;-72
2023/08/09 09:12:41;;;;;;;0.57;0.57;;;;;;;;;;4955363;28;20046;-72
2023/08/09 09:15:08;;;;;;;0.30;0.30;;;;;;;;;;4948544;28;20408;-73
2023/08/09 09:17:38;;;;;;;0.30;0.30;;;;;;;;;;4956205;28;20073;-74
2023/08/09 09:20:10;;;;;;;0.50;0.50;;;;;;;;;;4935056;29;20078;-74
2023/08/09 09:22:36;;;;;;;0.30;0.30;;;;;;;;;;4934427;29;20126;-73
2023/08/09 09:25:06;;;;;;;0.52;0.52;;;23.80;99.90;;;;;;4947778;28;20130;-73
2023/08/09 09:27:33;;;;;;;1.05;0.50;;;23.90;99.90;;;;;;4966286;28;20059;-74
2023/08/09 09:30:01;;;;;;;;;;;;;;;;;;4950741;28;20051;-73
2023/08/09 09:32:26;;;;;;;0.40;0.40;;;24.20;99.90;;;;;;4949002;28;19973;-74
2023/08/09 09:34:52;;;;;;;0.30;0.30;;;24.10;99.90;;;;;;4953106;28;20036;-74
2023/08/09 09:37:25;;;;;;;0.30;0.30;;;23.90;99.90;;;;;;4953146;28;20031;-74
2023/08/09 09:39:52;;;;;;;0.50;0.50;;;24.00;99.90;;;;;;4923349;29;20054;-74
2023/08/09 09:42:28;;;;;;;1.55;0.65;;;24.00;99.90;;;;;;4950799;28;20035;-74
2023/08/09 09:45:07;;;;;;;0.40;0.40;;;24.00;99.90;;;;;;4958916;28;20586;-74
2023/08/09 09:47:39;;;;;;;0.30;0.30;;;23.40;99.90;;;;;;4947787;28;20562;-75
2023/08/09 09:50:07;;;;;;;0.22;0.22;;;24.30;99.90;;;;;;4949098;28;20039;-73
2023/08/09 09:52:36;;;;;;;0.32;0.32;;;24.50;99.90;;;;;;4932199;28;20552;-74
2023/08/09 09:55:03;;;;;;;0.43;0.43;;;24.60;99.90;;;;;;4947469;29;20049;-73
2023/08/09 09:57:29;;;;;;;0.57;0.57;;;;;;;;;;4948831;28;20202;-72
2023/08/09 09:59:59;;;;;;;0.45;0.45;;;24.00;99.90;;;;;;4961888;28;20043;-73
2023/08/09 10:02:48;;;;;;;0.30;0.30;;;23.70;99.90;;;;;;4974257;28;20469;-73
2023/08/09 10:05:19;;;;;;;0.30;0.30;;;;;;;;;;4952484;28;20046;-72
2023/08/09 10:07:46;;;;;;;0.38;0.38;;;23.20;99.90;;;;;;4948819;28;20092;-70
2023/08/09 10:10:12;;;;;;;;;;;23.90;99.90;;;;;;4947309;28;20045;-75
2023/08/09 10:12:42;;;;;;;0.43;0.43;;;23.80;99.90;;;;;;4949837;28;20437;-71
2023/08/09 10:15:14;;;;;;;0.40;0.40;;;24.30;99.90;;;;;;4944960;28;20062;-74
2023/08/09 10:17:41;;;;;;;0.35;0.35;;;24.10;99.90;;;;;;4949579;28;20051;-73
2023/08/09 10:20:10;;;;;;;0.30;0.30;;;23.90;99.90;;;;;;4948755;28;20094;-73
2023/08/09 10:22:37;;;;;;;0.50;0.50;;;23.90;99.90;;;;;;4933507;29;20114;-74
2023/08/09 10:25:04;;;;;;;0.40;0.40;;;24.10;99.90;;;;;;4947416;28;20047;-73
2023/08/09 10:27:53;;;;;;;0.40;0.40;;;24.00;99.90;;;;;;4930445;29;20043;-73
2023/08/09 10:30:28;;;;;;;1.85;0.80;;;23.70;99.90;;;;;;4947393;28;20086;-73
2023/08/09 10:32:57;;;;;;;0.30;0.30;;;23.50;99.90;;;;;;4947822;28;20043;-73
2023/08/09 10:35:45;;;;;;;0.40;0.40;;;23.60;99.90;;;;;;4947968;28;20043;-73
2023/08/09 10:38:18;;;;;;;0.30;0.30;;;23.50;99.90;;;;;;4940557;28;20075;-74
2023/08/09 10:40:48;;;;;;;0.60;0.60;;;23.80;99.90;;;;;;4956424;28;20038;-71
2023/08/09 10:43:25;;;;;;;0.55;0.55;;;23.70;99.90;;;;;;4947128;28;20051;-73
2023/08/09 10:45:53;;;;;;;0.60;0.60;;;23.70;99.90;;;;;;4947512;28;20491;-73
2023/08/09 10:48:29;;;;;;;0.40;0.40;;;23.60;99.90;;;;;;4931971;28;20074;-71
2023/08/09 10:51:13;;;;;;;0.80;0.80;;;;;;;;;;4946836;29;20480;-72
2023/08/09 10:53:52;;;;;;;0.30;0.30;;;;;;;;;;4960711;28;20373;-71
2023/08/09 10:56:34;;;;;;;1.30;1.20;;;;;;;;;;4957757;28;20042;-70
2023/08/09 10:59:13;;;;;;;0.30;0.30;;;;;;;;;;4951225;28;20043;-72
2023/08/09 11:01:39;;;;;;;0.40;0.40;;;;;;;;;;4957061;28;20047;-71
2023/08/09 11:04:06;;;;;;;0.40;0.40;;;;;;;;;;4952252;28;20035;-70
2023/08/09 11:15:07;;;;;;;0.25;0.25;;;;;;;;;;5992918;23;20284;-75
2023/08/09 11:17:35;;;;;;;0.40;0.40;;;;;;;;;;4982208;28;20051;-70
2023/08/09 11:20:01;;;;;;;0.40;0.40;;;23.30;99.90;;;;;;4967679;28;20048;-73
2023/08/09 11:22:27;;;;;;;0.40;0.40;;;;;;;;;;4995827;28;20136;-73
2023/08/09 11:24:55;;;;;;;0.30;0.30;;;;;;;;;;5005790;28;20147;-70
2023/08/09 11:27:21;;;;;;;0.50;0.50;;;;;;;;;;4978506;28;20045;-70
2023/08/09 11:29:47;;;;;;;0.30;0.30;;;23.30;99.90;;;;;;4985833;28;20050;-73
2023/08/09 11:32:13;;;;;;;0.38;0.38;;;23.50;99.90;;;;;;4978064;28;20030;-71
2023/08/09 11:34:38;;;;;;;0.40;0.40;;;23.60;99.90;;;;;;4971230;28;20057;-73
2023/08/09 11:37:09;;;;;;;0.38;0.38;;;;;;;;;;4987273;28;20576;-71
2023/08/09 11:39:34;;;;;;;0.30;0.30;;;24.10;99.90;;;;;;4964070;28;20509;-70
2023/08/09 11:42:00;;;;;;;0.90;0.65;;;24.20;99.90;;;;;;4981627;28;20321;-71
2023/08/09 11:44:31;;;;;;;0.63;0.40;;;24.30;99.90;;;;;;4957314;28;20050;-73
2023/08/09 11:46:59;;;;;;;0.65;0.65;;;24.30;99.90;;;;;;4975391;28;20050;-71
2023/08/09 11:49:34;;;;;;;0.35;0.35;;;;;;;;;;4961342;28;20042;-71
2023/08/09 11:52:01;;;;;;;0.32;0.32;;;;;;;;;;4977206;28;20146;-73
2023/08/09 11:54:28;;;;;;;0.30;0.30;;;24.70;99.90;;;;;;4984839;28;20042;-71
2023/08/09 11:56:54;;;;;;;0.82;0.82;;;24.80;99.70;;;;;;4959872;28;20045;-72
2023/08/09 11:59:22;;;;;;;0.65;0.65;;;25.00;98.80;;;;;;4984086;28;20066;-72
2023/08/09 12:01:49;;;;;;;;;;;25.10;99.90;;;;;;4984937;28;20046;-72
2023/08/09 12:04:19;;;;;;;0.40;0.40;;;25.30;99.50;;;;;;4966104;28;20369;-71
2023/08/09 12:06:45;;;;;;;0.30;0.30;;;;;;;;;;4981968;28;20042;-71
2023/08/09 12:09:36;;;;;;;0.30;0.30;;;25.10;99.70;;;;;;4982187;28;20042;-75
2023/08/09 12:12:11;;;;;;;0.90;0.45;;;25.10;97.70;;;;;;4983413;28;20474;-71
2023/08/09 12:14:39;;;;;;;0.35;0.35;;;25.10;98.40;;;;;;4958064;28;20037;-71
2023/08/09 12:17:06;;;;;;;0.40;0.40;;;24.80;97.40;;;;;;4975558;28;20130;-70
2023/08/09 12:19:33;;;;;;;0.95;0.80;;;24.90;97.10;;;;;;4979067;28;20046;-72
2023/08/09 12:22:00;;;;;;;0.75;0.75;;;24.80;99.90;;;;;;4963782;28;20053;-71
2023/08/09 12:24:27;;;;;;;0.40;0.40;;;24.80;95.10;;;;;;4981199;28;20150;-72
2023/08/09 12:26:54;;;;;;;0.20;0.20;;;24.80;98.10;;;;;;4978371;28;20446;-72
2023/08/09 12:29:20;;;;;;;0.93;0.90;;;24.70;99.90;;;;;;4986458;28;20039;-71
2023/08/09 12:31:46;;;;;;;0.50;0.50;;;24.60;99.90;;;;;;4985697;28;20196;-70
2023/08/09 12:34:12;;;;;;;0.30;0.30;;;24.60;97.50;;;;;;4976588;28;20100;-72
2023/08/09 12:36:39;;;;;;;0.45;0.45;;;24.70;97.60;;;;;;4986708;28;20127;-74
2023/08/09 12:39:05;;;;;;;0.43;0.43;;;24.80;99.90;;;;;;4989671;28;20383;-71
2023/08/09 12:41:31;;;;;;;0.40;0.40;;;24.80;97.40;;;;;;4975772;28;20097;-73
2023/08/09 12:43:56;;;;;;;0.30;0.30;;;24.70;98.90;;;;;;4984961;28;20042;-71
2023/08/09 12:46:22;;;;;;;0.30;0.30;;;24.70;98.20;;;;;;4985316;28;20490;-71
2023/08/09 12:48:47;;;;;;;0.30;0.30;;;24.70;97.00;;;;;;4989178;28;20046;-70
2023/08/09 12:51:14;;;;;;;0.40;0.40;;;24.80;96.00;;;;;;4985664;28;20039;-70
2023/08/09 12:53:40;;;;;;;0.40;0.40;;;25.00;96.50;;;;;;4983036;28;20040;-70
2023/08/09 12:56:06;;;;;;;0.55;0.55;;;24.90;97.40;;;;;;4987760;28;20124;-70
2023/08/09 12:58:32;;;;;;;0.30;0.30;;;25.10;98.10;;;;;;4983844;28;20125;-73
2023/08/09 13:00:57;;;;;;;0.40;0.40;;;25.30;97.90;;;;;;4978637;28;20130;-74
2023/08/09 13:03:23;;;;;;;0.40;0.40;;;25.30;97.80;;;;;;4979044;28;20125;-74
2023/08/09 13:05:49;;;;;;;0.52;0.52;;;25.30;97.00;;;;;;4969267;28;20414;-76
2023/08/09 13:08:14;;;;;;;0.30;0.30;;;25.30;97.20;;;;;;4983537;28;20450;-74
2023/08/09 13:10:40;;;;;;;0.45;0.45;;;25.50;97.60;;;;;;4967768;28;20035;-73
2023/08/09 13:13:06;;;;;;;3.30;1.27;;;25.50;98.30;;;;;;4969994;28;20558;-73
2023/08/09 13:15:32;;;;;;;0.43;0.43;;;;;;;;;;4982978;28;20913;-74
2023/08/09 13:17:58;;;;;;;0.80;0.80;;;25.10;94.10;;;;;;4987018;28;20046;-74
2023/08/09 13:20:26;;;;;;;0.40;0.40;;;25.00;96.00;;;;;;4988893;28;20116;-74
2023/08/09 13:22:52;;;;;;;0.30;0.30;;;24.80;95.60;;;;;;4981217;28;20038;-74
2023/08/09 13:25:18;;;;;;;0.30;0.30;;;;;;;;;;4979042;28;20383;-74
2023/08/09 13:27:44;;;;;;;0.45;0.45;;;24.60;96.40;;;;;;4967763;28;20066;-74
2023/08/09 13:30:10;;;;;;;0.20;0.20;;;;;;;;;;4968289;28;20046;-74